sensor_id;sensor_type;location;lat;lon;timestamp;P1;durP1;ratioP1;P2;durP2;ratioP2
5869;SDS011;2961;47.702;9.410;2024-02-15T00:00:01;6.63;;;4.30;;
5869;SDS011;2961;47.702;9.410;2024-02-15T00:02:28;5.97;;;4.83;;
5869;SDS011;2961;47.702;9.410;2024-02-15T00:04:55;6.23;;;3.97;;
5869;SDS011;2961;47.702;9.410;2024-02-15T00:07:22;7.20;;;4.90;;
5869;SDS011;2961;47.702;9.410;2024-02-15T00:09:50;7.03;;;4.20;;
5869;SDS011;2961;47.702;9.410;2024-02-15T00:12:18;5.23;;;4.13;;
5869;SDS011;2961;47.702;9.410;2024-02-15T00:14:45;5.87;;;3.77;;
5869;SDS011;2961;47.702;9.410;2024-02-15T00:17:12;5.80;;;4.40;;
5869;SDS011;2961;47.702;9.410;2024-02-15T00:19:39;6.50;;;3.80;;
5869;SDS011;2961;47.702;9.410;2024-02-15T00:22:06;4.07;;;3.67;;
5869;SDS011;2961;47.702;9.410;2024-02-15T00:24:33;3.87;;;3.57;;
5869;SDS011;2961;47.702;9.410;2024-02-15T00:27:04;4.40;;;4.00;;
5869;SDS011;2961;47.702;9.410;2024-02-15T00:29:31;5.57;;;3.90;;
5869;SDS011;2961;47.702;9.410;2024-02-15T00:31:59;5.17;;;4.17;;
5869;SDS011;2961;47.702;9.410;2024-02-15T00:34:26;10.93;;;3.63;;
5869;SDS011;2961;47.702;9.410;2024-02-15T00:36:52;8.57;;;3.47;;
5869;SDS011;2961;47.702;9.410;2024-02-15T00:39:19;3.90;;;3.40;;
5869;SDS011;2961;47.702;9.410;2024-02-15T00:41:46;5.80;;;4.50;;
5869;SDS011;2961;47.702;9.410;2024-02-15T00:44:15;4.40;;;3.57;;
5869;SDS011;2961;47.702;9.410;2024-02-15T00:46:42;4.60;;;3.03;;
5869;SDS011;2961;47.702;9.410;2024-02-15T00:49:09;3.33;;;2.93;;
5869;SDS011;2961;47.702;9.410;2024-02-15T00:51:36;5.13;;;3.57;;
5869;SDS011;2961;47.702;9.410;2024-02-15T00:54:03;4.07;;;3.67;;
5869;SDS011;2961;47.702;9.410;2024-02-15T00:56:30;3.53;;;3.23;;
5869;SDS011;2961;47.702;9.410;2024-02-15T00:58:58;5.40;;;3.30;;
5869;SDS011;2961;47.702;9.410;2024-02-15T01:01:28;3.33;;;3.00;;
5869;SDS011;2961;47.702;9.410;2024-02-15T01:03:55;7.27;;;3.60;;
5869;SDS011;2961;47.702;9.410;2024-02-15T01:06:22;3.67;;;3.37;;
5869;SDS011;2961;47.702;9.410;2024-02-15T01:08:49;4.13;;;3.73;;
5869;SDS011;2961;47.702;9.410;2024-02-15T01:11:16;6.47;;;3.87;;
5869;SDS011;2961;47.702;9.410;2024-02-15T01:13:43;7.43;;;3.90;;
5869;SDS011;2961;47.702;9.410;2024-02-15T01:16:10;5.90;;;3.23;;
5869;SDS011;2961;47.702;9.410;2024-02-15T01:18:38;9.20;;;4.33;;
5869;SDS011;2961;47.702;9.410;2024-02-15T01:21:05;4.57;;;3.50;;
5869;SDS011;2961;47.702;9.410;2024-02-15T01:23:32;8.57;;;3.70;;
5869;SDS011;2961;47.702;9.410;2024-02-15T01:26:01;7.83;;;3.57;;
5869;SDS011;2961;47.702;9.410;2024-02-15T01:28:30;3.60;;;3.10;;
5869;SDS011;2961;47.702;9.410;2024-02-15T01:30:57;5.27;;;3.80;;
5869;SDS011;2961;47.702;9.410;2024-02-15T01:33:24;4.47;;;3.40;;
5869;SDS011;2961;47.702;9.410;2024-02-15T01:35:53;4.63;;;2.90;;
5869;SDS011;2961;47.702;9.410;2024-02-15T01:38:20;4.20;;;2.93;;
5869;SDS011;2961;47.702;9.410;2024-02-15T01:40:46;7.70;;;3.53;;
5869;SDS011;2961;47.702;9.410;2024-02-15T01:43:14;2.90;;;2.70;;
5869;SDS011;2961;47.702;9.410;2024-02-15T01:45:40;3.77;;;3.40;;
5869;SDS011;2961;47.702;9.410;2024-02-15T01:48:07;3.70;;;3.40;;
5869;SDS011;2961;47.702;9.410;2024-02-15T01:50:35;3.20;;;2.83;;
5869;SDS011;2961;47.702;9.410;2024-02-15T01:53:04;4.80;;;3.47;;
5869;SDS011;2961;47.702;9.410;2024-02-15T01:55:33;3.57;;;3.10;;
5869;SDS011;2961;47.702;9.410;2024-02-15T01:58:00;5.47;;;3.80;;
5869;SDS011;2961;47.702;9.410;2024-02-15T02:00:27;4.30;;;3.87;;
5869;SDS011;2961;47.702;9.410;2024-02-15T02:02:54;3.90;;;3.10;;
5869;SDS011;2961;47.702;9.410;2024-02-15T02:05:27;3.13;;;2.83;;
5869;SDS011;2961;47.702;9.410;2024-02-15T02:07:54;3.33;;;3.07;;
5869;SDS011;2961;47.702;9.410;2024-02-15T02:10:25;4.40;;;3.00;;
5869;SDS011;2961;47.702;9.410;2024-02-15T02:12:57;4.37;;;3.03;;
5869;SDS011;2961;47.702;9.410;2024-02-15T02:15:24;3.53;;;2.77;;
5869;SDS011;2961;47.702;9.410;2024-02-15T02:17:51;6.07;;;3.23;;
5869;SDS011;2961;47.702;9.410;2024-02-15T02:20:18;2.50;;;2.40;;
5869;SDS011;2961;47.702;9.410;2024-02-15T02:22:45;2.60;;;2.40;;
5869;SDS011;2961;47.702;9.410;2024-02-15T02:25:17;3.07;;;2.87;;
5869;SDS011;2961;47.702;9.410;2024-02-15T02:27:44;3.33;;;3.03;;
5869;SDS011;2961;47.702;9.410;2024-02-15T02:30:13;3.90;;;2.80;;
5869;SDS011;2961;47.702;9.410;2024-02-15T02:32:43;3.00;;;2.80;;
5869;SDS011;2961;47.702;9.410;2024-02-15T02:35:11;3.17;;;2.87;;
5869;SDS011;2961;47.702;9.410;2024-02-15T02:37:38;5.13;;;2.93;;
5869;SDS011;2961;47.702;9.410;2024-02-15T02:40:05;3.33;;;2.80;;
5869;SDS011;2961;47.702;9.410;2024-02-15T02:42:35;2.83;;;2.60;;
5869;SDS011;2961;47.702;9.410;2024-02-15T02:45:02;5.47;;;2.77;;
5869;SDS011;2961;47.702;9.410;2024-02-15T02:47:30;3.60;;;3.30;;
5869;SDS011;2961;47.702;9.410;2024-02-15T02:49:57;3.23;;;2.93;;
5869;SDS011;2961;47.702;9.410;2024-02-15T02:52:23;3.57;;;3.27;;
5869;SDS011;2961;47.702;9.410;2024-02-15T02:54:50;2.37;;;2.27;;
5869;SDS011;2961;47.702;9.410;2024-02-15T02:57:36;3.00;;;2.70;;
5869;SDS011;2961;47.702;9.410;2024-02-15T03:00:04;6.27;;;2.93;;
5869;SDS011;2961;47.702;9.410;2024-02-15T03:02:35;8.57;;;3.63;;
5869;SDS011;2961;47.702;9.410;2024-02-15T03:05:03;6.50;;;3.33;;
5869;SDS011;2961;47.702;9.410;2024-02-15T03:07:32;3.43;;;2.47;;
5869;SDS011;2961;47.702;9.410;2024-02-15T03:09:59;2.70;;;2.50;;
5869;SDS011;2961;47.702;9.410;2024-02-15T03:12:26;3.63;;;2.90;;
5869;SDS011;2961;47.702;9.410;2024-02-15T03:14:55;3.90;;;3.53;;
5869;SDS011;2961;47.702;9.410;2024-02-15T03:17:22;6.87;;;3.37;;
5869;SDS011;2961;47.702;9.410;2024-02-15T03:19:49;3.07;;;2.40;;
5869;SDS011;2961;47.702;9.410;2024-02-15T03:22:16;5.40;;;2.90;;
5869;SDS011;2961;47.702;9.410;2024-02-15T03:24:43;4.07;;;2.60;;
5869;SDS011;2961;47.702;9.410;2024-02-15T03:27:10;4.10;;;3.23;;
5869;SDS011;2961;47.702;9.410;2024-02-15T03:29:37;7.30;;;2.83;;
5869;SDS011;2961;47.702;9.410;2024-02-15T03:32:06;2.43;;;2.17;;
5869;SDS011;2961;47.702;9.410;2024-02-15T03:34:34;3.30;;;3.00;;
5869;SDS011;2961;47.702;9.410;2024-02-15T03:37:01;2.60;;;2.40;;
5869;SDS011;2961;47.702;9.410;2024-02-15T03:39:29;5.13;;;2.93;;
5869;SDS011;2961;47.702;9.410;2024-02-15T03:41:58;3.93;;;2.57;;
5869;SDS011;2961;47.702;9.410;2024-02-15T03:44:24;3.00;;;2.67;;
5869;SDS011;2961;47.702;9.410;2024-02-15T03:46:52;3.50;;;2.60;;
5869;SDS011;2961;47.702;9.410;2024-02-15T03:49:21;3.00;;;2.70;;
5869;SDS011;2961;47.702;9.410;2024-02-15T03:51:48;2.77;;;2.57;;
5869;SDS011;2961;47.702;9.410;2024-02-15T03:54:15;2.87;;;2.40;;
5869;SDS011;2961;47.702;9.410;2024-02-15T03:56:46;8.53;;;2.53;;
5869;SDS011;2961;47.702;9.410;2024-02-15T03:59:16;4.30;;;2.10;;
5869;SDS011;2961;47.702;9.410;2024-02-15T04:01:44;3.70;;;2.70;;
5869;SDS011;2961;47.702;9.410;2024-02-15T04:04:12;3.77;;;2.73;;
5869;SDS011;2961;47.702;9.410;2024-02-15T04:06:40;2.83;;;2.50;;
5869;SDS011;2961;47.702;9.410;2024-02-15T04:09:08;4.73;;;2.93;;
5869;SDS011;2961;47.702;9.410;2024-02-15T04:11:35;2.67;;;2.47;;
5869;SDS011;2961;47.702;9.410;2024-02-15T04:14:03;4.20;;;2.97;;
5869;SDS011;2961;47.702;9.410;2024-02-15T04:16:30;2.70;;;2.53;;
5869;SDS011;2961;47.702;9.410;2024-02-15T04:18:58;2.40;;;1.80;;
5869;SDS011;2961;47.702;9.410;2024-02-15T04:21:26;2.43;;;2.23;;
5869;SDS011;2961;47.702;9.410;2024-02-15T04:23:54;5.93;;;2.40;;
5869;SDS011;2961;47.702;9.410;2024-02-15T04:26:21;2.93;;;2.73;;
5869;SDS011;2961;47.702;9.410;2024-02-15T04:28:51;2.70;;;2.50;;
5869;SDS011;2961;47.702;9.410;2024-02-15T04:31:19;2.67;;;2.47;;
5869;SDS011;2961;47.702;9.410;2024-02-15T04:33:46;3.17;;;2.87;;
5869;SDS011;2961;47.702;9.410;2024-02-15T04:36:14;3.37;;;2.63;;
5869;SDS011;2961;47.702;9.410;2024-02-15T04:38:48;2.70;;;2.60;;
5869;SDS011;2961;47.702;9.410;2024-02-15T04:41:17;2.97;;;2.77;;
5869;SDS011;2961;47.702;9.410;2024-02-15T04:43:48;3.10;;;2.80;;
5869;SDS011;2961;47.702;9.410;2024-02-15T04:46:15;8.53;;;2.77;;
5869;SDS011;2961;47.702;9.410;2024-02-15T04:48:41;2.53;;;2.33;;
5869;SDS011;2961;47.702;9.410;2024-02-15T04:51:08;2.80;;;2.60;;
5869;SDS011;2961;47.702;9.410;2024-02-15T04:53:36;3.63;;;2.80;;
5869;SDS011;2961;47.702;9.410;2024-02-15T04:56:03;2.20;;;2.10;;
5869;SDS011;2961;47.702;9.410;2024-02-15T04:58:37;2.13;;;2.00;;
5869;SDS011;2961;47.702;9.410;2024-02-15T05:01:11;3.30;;;2.60;;
5869;SDS011;2961;47.702;9.410;2024-02-15T05:03:38;3.17;;;2.87;;
5869;SDS011;2961;47.702;9.410;2024-02-15T05:06:05;3.30;;;2.27;;
5869;SDS011;2961;47.702;9.410;2024-02-15T05:08:33;7.93;;;2.40;;
5869;SDS011;2961;47.702;9.410;2024-02-15T05:11:01;2.40;;;2.30;;
5869;SDS011;2961;47.702;9.410;2024-02-15T05:13:29;2.30;;;2.20;;
5869;SDS011;2961;47.702;9.410;2024-02-15T05:15:57;3.80;;;2.20;;
5869;SDS011;2961;47.702;9.410;2024-02-15T05:18:24;2.97;;;2.40;;
5869;SDS011;2961;47.702;9.410;2024-02-15T05:20:51;3.10;;;2.23;;
5869;SDS011;2961;47.702;9.410;2024-02-15T05:23:18;2.20;;;2.00;;
5869;SDS011;2961;47.702;9.410;2024-02-15T05:25:45;8.67;;;2.40;;
5869;SDS011;2961;47.702;9.410;2024-02-15T05:28:12;8.60;;;2.70;;
5869;SDS011;2961;47.702;9.410;2024-02-15T05:30:38;1.97;;;1.87;;
5869;SDS011;2961;47.702;9.410;2024-02-15T05:33:06;4.67;;;2.13;;
5869;SDS011;2961;47.702;9.410;2024-02-15T05:35:35;2.40;;;2.10;;
5869;SDS011;2961;47.702;9.410;2024-02-15T05:38:04;2.63;;;2.47;;
5869;SDS011;2961;47.702;9.410;2024-02-15T05:40:31;2.57;;;2.00;;
5869;SDS011;2961;47.702;9.410;2024-02-15T05:42:58;3.00;;;2.70;;
5869;SDS011;2961;47.702;9.410;2024-02-15T05:45:30;7.67;;;2.30;;
5869;SDS011;2961;47.702;9.410;2024-02-15T05:48:03;2.30;;;2.20;;
5869;SDS011;2961;47.702;9.410;2024-02-15T05:50:35;3.00;;;2.70;;
5869;SDS011;2961;47.702;9.410;2024-02-15T05:53:02;2.40;;;2.30;;
5869;SDS011;2961;47.702;9.410;2024-02-15T05:55:29;2.40;;;2.20;;
5869;SDS011;2961;47.702;9.410;2024-02-15T05:57:59;4.07;;;2.47;;
5869;SDS011;2961;47.702;9.410;2024-02-15T06:00:26;9.30;;;2.10;;
5869;SDS011;2961;47.702;9.410;2024-02-15T06:02:55;2.60;;;2.40;;
5869;SDS011;2961;47.702;9.410;2024-02-15T06:05:22;4.20;;;2.37;;
5869;SDS011;2961;47.702;9.410;2024-02-15T06:07:50;2.60;;;2.40;;
5869;SDS011;2961;47.702;9.410;2024-02-15T06:10:17;15.33;;;5.40;;
5869;SDS011;2961;47.702;9.410;2024-02-15T06:12:44;5.33;;;3.73;;
5869;SDS011;2961;47.702;9.410;2024-02-15T06:15:11;6.17;;;3.17;;
5869;SDS011;2961;47.702;9.410;2024-02-15T06:17:41;5.13;;;3.00;;
5869;SDS011;2961;47.702;9.410;2024-02-15T06:20:11;4.23;;;2.90;;
5869;SDS011;2961;47.702;9.410;2024-02-15T06:22:39;2.93;;;2.00;;
5869;SDS011;2961;47.702;9.410;2024-02-15T06:25:08;5.23;;;2.53;;
5869;SDS011;2961;47.702;9.410;2024-02-15T06:27:36;7.90;;;3.00;;
5869;SDS011;2961;47.702;9.410;2024-02-15T06:30:06;10.10;;;3.63;;
5869;SDS011;2961;47.702;9.410;2024-02-15T06:32:51;7.33;;;3.50;;
5869;SDS011;2961;47.702;9.410;2024-02-15T06:35:35;4.07;;;3.40;;
5869;SDS011;2961;47.702;9.410;2024-02-15T06:38:20;4.50;;;3.17;;
5869;SDS011;2961;47.702;9.410;2024-02-15T06:41:11;5.20;;;2.70;;
5869;SDS011;2961;47.702;9.410;2024-02-15T06:43:38;3.80;;;3.23;;
5869;SDS011;2961;47.702;9.410;2024-02-15T06:46:05;3.70;;;2.90;;
5869;SDS011;2961;47.702;9.410;2024-02-15T06:48:33;2.77;;;2.47;;
5869;SDS011;2961;47.702;9.410;2024-02-15T06:51:00;4.23;;;3.47;;
5869;SDS011;2961;47.702;9.410;2024-02-15T06:53:28;2.70;;;2.43;;
5869;SDS011;2961;47.702;9.410;2024-02-15T06:55:55;5.40;;;2.60;;
5869;SDS011;2961;47.702;9.410;2024-02-15T06:58:23;10.03;;;2.90;;
5869;SDS011;2961;47.702;9.410;2024-02-15T07:00:52;8.50;;;3.67;;
5869;SDS011;2961;47.702;9.410;2024-02-15T07:03:19;6.27;;;3.40;;
5869;SDS011;2961;47.702;9.410;2024-02-15T07:05:47;3.90;;;2.93;;
5869;SDS011;2961;47.702;9.410;2024-02-15T07:08:14;4.67;;;2.80;;
5869;SDS011;2961;47.702;9.410;2024-02-15T07:10:41;3.30;;;3.00;;
5869;SDS011;2961;47.702;9.410;2024-02-15T07:13:08;3.50;;;2.53;;
5869;SDS011;2961;47.702;9.410;2024-02-15T07:15:36;4.90;;;3.10;;
5869;SDS011;2961;47.702;9.410;2024-02-15T07:18:04;3.00;;;2.70;;
5869;SDS011;2961;47.702;9.410;2024-02-15T07:20:32;2.50;;;2.30;;
5869;SDS011;2961;47.702;9.410;2024-02-15T07:22:59;13.00;;;2.97;;
5869;SDS011;2961;47.702;9.410;2024-02-15T07:25:26;2.80;;;2.60;;
5869;SDS011;2961;47.702;9.410;2024-02-15T07:27:52;6.10;;;3.97;;
5869;SDS011;2961;47.702;9.410;2024-02-15T07:30:19;8.70;;;3.20;;
5869;SDS011;2961;47.702;9.410;2024-02-15T07:32:49;6.37;;;3.17;;
5869;SDS011;2961;47.702;9.410;2024-02-15T07:35:16;7.20;;;4.05;;
5869;SDS011;2961;47.702;9.410;2024-02-15T07:37:50;6.63;;;4.20;;
5869;SDS011;2961;47.702;9.410;2024-02-15T07:40:18;7.80;;;3.40;;
5869;SDS011;2961;47.702;9.410;2024-02-15T07:42:47;5.53;;;4.30;;
5869;SDS011;2961;47.702;9.410;2024-02-15T07:45:13;3.50;;;3.10;;
5869;SDS011;2961;47.702;9.410;2024-02-15T07:47:41;4.10;;;3.70;;
5869;SDS011;2961;47.702;9.410;2024-02-15T07:50:09;5.33;;;4.83;;
5869;SDS011;2961;47.702;9.410;2024-02-15T07:52:37;4.87;;;4.10;;
5869;SDS011;2961;47.702;9.410;2024-02-15T07:55:04;7.60;;;4.50;;
5869;SDS011;2961;47.702;9.410;2024-02-15T07:57:33;4.40;;;4.10;;
5869;SDS011;2961;47.702;9.410;2024-02-15T08:00:00;4.40;;;4.00;;
5869;SDS011;2961;47.702;9.410;2024-02-15T08:02:28;5.60;;;4.40;;
5869;SDS011;2961;47.702;9.410;2024-02-15T08:04:55;6.00;;;3.87;;
5869;SDS011;2961;47.702;9.410;2024-02-15T08:07:23;4.73;;;4.23;;
5869;SDS011;2961;47.702;9.410;2024-02-15T08:09:50;4.47;;;4.10;;
5869;SDS011;2961;47.702;9.410;2024-02-15T08:12:18;5.80;;;4.40;;
5869;SDS011;2961;47.702;9.410;2024-02-15T08:14:45;5.67;;;3.70;;
5869;SDS011;2961;47.702;9.410;2024-02-15T08:17:12;4.73;;;4.10;;
5869;SDS011;2961;47.702;9.410;2024-02-15T08:19:39;10.97;;;3.83;;
5869;SDS011;2961;47.702;9.410;2024-02-15T08:22:07;4.77;;;4.20;;
5869;SDS011;2961;47.702;9.410;2024-02-15T08:24:36;6.50;;;4.77;;
5869;SDS011;2961;47.702;9.410;2024-02-15T08:27:02;6.33;;;4.97;;
5869;SDS011;2961;47.702;9.410;2024-02-15T08:29:30;5.60;;;4.20;;
5869;SDS011;2961;47.702;9.410;2024-02-15T08:31:57;5.23;;;4.40;;
5869;SDS011;2961;47.702;9.410;2024-02-15T08:34:24;6.50;;;4.10;;
5869;SDS011;2961;47.702;9.410;2024-02-15T08:36:51;4.60;;;4.10;;
5869;SDS011;2961;47.702;9.410;2024-02-15T08:39:18;4.27;;;3.37;;
5869;SDS011;2961;47.702;9.410;2024-02-15T08:41:49;3.53;;;3.23;;
5869;SDS011;2961;47.702;9.410;2024-02-15T08:44:18;4.13;;;2.97;;
5869;SDS011;2961;47.702;9.410;2024-02-15T08:46:46;3.13;;;2.93;;
5869;SDS011;2961;47.702;9.410;2024-02-15T08:49:13;3.40;;;2.90;;
5869;SDS011;2961;47.702;9.410;2024-02-15T08:51:40;3.53;;;2.90;;
5869;SDS011;2961;47.702;9.410;2024-02-15T08:54:07;3.40;;;3.10;;
5869;SDS011;2961;47.702;9.410;2024-02-15T08:56:35;3.57;;;2.70;;
5869;SDS011;2961;47.702;9.410;2024-02-15T08:59:03;2.50;;;2.30;;
5869;SDS011;2961;47.702;9.410;2024-02-15T09:01:30;3.07;;;2.80;;
5869;SDS011;2961;47.702;9.410;2024-02-15T09:03:57;2.57;;;2.37;;
5869;SDS011;2961;47.702;9.410;2024-02-15T09:06:23;3.83;;;3.07;;
5869;SDS011;2961;47.702;9.410;2024-02-15T09:08:51;5.87;;;3.73;;
5869;SDS011;2961;47.702;9.410;2024-02-15T09:11:18;4.47;;;3.07;;
5869;SDS011;2961;47.702;9.410;2024-02-15T09:13:44;2.80;;;2.60;;
5869;SDS011;2961;47.702;9.410;2024-02-15T09:16:13;2.80;;;2.47;;
5869;SDS011;2961;47.702;9.410;2024-02-15T09:18:40;5.40;;;2.60;;
5869;SDS011;2961;47.702;9.410;2024-02-15T09:21:10;3.93;;;2.40;;
5869;SDS011;2961;47.702;9.410;2024-02-15T09:23:37;3.30;;;2.00;;
5869;SDS011;2961;47.702;9.410;2024-02-15T09:26:04;1.93;;;1.83;;
5869;SDS011;2961;47.702;9.410;2024-02-15T09:28:31;3.83;;;2.43;;
5869;SDS011;2961;47.702;9.410;2024-02-15T09:30:58;2.00;;;1.90;;
5869;SDS011;2961;47.702;9.410;2024-02-15T09:33:25;2.63;;;1.47;;
5869;SDS011;2961;47.702;9.410;2024-02-15T09:35:52;1.63;;;1.00;;
5869;SDS011;2961;47.702;9.410;2024-02-15T09:38:20;1.37;;;1.37;;
5869;SDS011;2961;47.702;9.410;2024-02-15T09:40:48;2.80;;;1.20;;
5869;SDS011;2961;47.702;9.410;2024-02-15T09:43:15;4.13;;;1.47;;
5869;SDS011;2961;47.702;9.410;2024-02-15T09:45:42;4.93;;;1.27;;
5869;SDS011;2961;47.702;9.410;2024-02-15T09:48:10;4.50;;;1.07;;
5869;SDS011;2961;47.702;9.410;2024-02-15T09:50:39;1.20;;;1.20;;
5869;SDS011;2961;47.702;9.410;2024-02-15T09:53:08;1.20;;;1.20;;
5869;SDS011;2961;47.702;9.410;2024-02-15T09:55:35;1.60;;;1.50;;
5869;SDS011;2961;47.702;9.410;2024-02-15T09:58:02;2.57;;;1.50;;
5869;SDS011;2961;47.702;9.410;2024-02-15T10:00:31;2.60;;;2.20;;
5869;SDS011;2961;47.702;9.410;2024-02-15T10:03:00;2.73;;;2.13;;
5869;SDS011;2961;47.702;9.410;2024-02-15T10:05:28;2.10;;;1.73;;
5869;SDS011;2961;47.702;9.410;2024-02-15T10:07:57;1.47;;;1.37;;
5869;SDS011;2961;47.702;9.410;2024-02-15T10:10:26;2.97;;;1.50;;
5869;SDS011;2961;47.702;9.410;2024-02-15T10:12:54;1.50;;;1.50;;
5869;SDS011;2961;47.702;9.410;2024-02-15T10:15:28;1.77;;;1.67;;
5869;SDS011;2961;47.702;9.410;2024-02-15T10:17:56;1.73;;;1.63;;
5869;SDS011;2961;47.702;9.410;2024-02-15T10:20:23;1.53;;;1.27;;
5869;SDS011;2961;47.702;9.410;2024-02-15T10:22:51;2.60;;;1.30;;
5869;SDS011;2961;47.702;9.410;2024-02-15T10:25:21;2.90;;;1.40;;
5869;SDS011;2961;47.702;9.410;2024-02-15T10:27:48;1.07;;;0.80;;
5869;SDS011;2961;47.702;9.410;2024-02-15T10:30:16;2.57;;;1.60;;
5869;SDS011;2961;47.702;9.410;2024-02-15T10:32:44;5.40;;;1.57;;
5869;SDS011;2961;47.702;9.410;2024-02-15T10:35:18;1.40;;;1.30;;
5869;SDS011;2961;47.702;9.410;2024-02-15T10:37:46;1.30;;;1.30;;
5869;SDS011;2961;47.702;9.410;2024-02-15T10:40:17;1.77;;;1.67;;
5869;SDS011;2961;47.702;9.410;2024-02-15T10:42:46;2.73;;;1.17;;
5869;SDS011;2961;47.702;9.410;2024-02-15T10:45:14;6.63;;;1.60;;
5869;SDS011;2961;47.702;9.410;2024-02-15T10:47:43;3.10;;;1.00;;
5869;SDS011;2961;47.702;9.410;2024-02-15T10:50:10;1.30;;;1.30;;
5869;SDS011;2961;47.702;9.410;2024-02-15T10:52:38;1.17;;;1.17;;
5869;SDS011;2961;47.702;9.410;2024-02-15T10:55:14;1.20;;;1.20;;
5869;SDS011;2961;47.702;9.410;2024-02-15T10:57:49;1.50;;;1.50;;
5869;SDS011;2961;47.702;9.410;2024-02-15T11:00:19;1.40;;;1.30;;
5869;SDS011;2961;47.702;9.410;2024-02-15T11:02:54;2.70;;;1.60;;
5869;SDS011;2961;47.702;9.410;2024-02-15T11:05:29;1.93;;;1.20;;
5869;SDS011;2961;47.702;9.410;2024-02-15T11:07:59;1.60;;;1.47;;
5869;SDS011;2961;47.702;9.410;2024-02-15T11:10:27;1.27;;;1.27;;
5869;SDS011;2961;47.702;9.410;2024-02-15T11:12:56;1.70;;;1.60;;
5869;SDS011;2961;47.702;9.410;2024-02-15T11:15:43;1.47;;;1.40;;
5869;SDS011;2961;47.702;9.410;2024-02-15T11:21:09;1.63;;;1.43;;
5869;SDS011;2961;47.702;9.410;2024-02-15T11:23:36;1.40;;;1.30;;
5869;SDS011;2961;47.702;9.410;2024-02-15T11:26:04;2.33;;;1.23;;
5869;SDS011;2961;47.702;9.410;2024-02-15T11:28:39;1.10;;;1.00;;
5869;SDS011;2961;47.702;9.410;2024-02-15T11:31:09;1.43;;;1.23;;
5869;SDS011;2961;47.702;9.410;2024-02-15T11:33:38;1.50;;;1.07;;
5869;SDS011;2961;47.702;9.410;2024-02-15T11:36:05;1.33;;;1.30;;
5869;SDS011;2961;47.702;9.410;2024-02-15T11:38:33;0.80;;;0.80;;
5869;SDS011;2961;47.702;9.410;2024-02-15T11:41:01;1.17;;;1.17;;
5869;SDS011;2961;47.702;9.410;2024-02-15T11:43:51;1.27;;;1.27;;
5869;SDS011;2961;47.702;9.410;2024-02-15T11:46:23;1.00;;;0.93;;
5869;SDS011;2961;47.702;9.410;2024-02-15T11:48:54;1.80;;;1.20;;
5869;SDS011;2961;47.702;9.410;2024-02-15T11:51:28;1.30;;;1.30;;
5869;SDS011;2961;47.702;9.410;2024-02-15T11:53:59;1.33;;;1.33;;
5869;SDS011;2961;47.702;9.410;2024-02-15T11:56:30;3.53;;;1.20;;
5869;SDS011;2961;47.702;9.410;2024-02-15T11:59:03;1.83;;;1.33;;
5869;SDS011;2961;47.702;9.410;2024-02-15T12:01:31;5.20;;;3.20;;
5869;SDS011;2961;47.702;9.410;2024-02-15T12:04:16;4.70;;;2.63;;
5869;SDS011;2961;47.702;9.410;2024-02-15T12:07:02;3.00;;;2.33;;
5869;SDS011;2961;47.702;9.410;2024-02-15T12:09:47;2.20;;;2.10;;
5869;SDS011;2961;47.702;9.410;2024-02-15T12:12:31;2.57;;;2.37;;
5869;SDS011;2961;47.702;9.410;2024-02-15T12:15:17;11.93;;;3.13;;
5869;SDS011;2961;47.702;9.410;2024-02-15T12:18:13;2.57;;;2.33;;
5869;SDS011;2961;47.702;9.410;2024-02-15T12:20:58;4.00;;;2.70;;
5869;SDS011;2961;47.702;9.410;2024-02-15T12:23:25;3.03;;;2.83;;
5869;SDS011;2961;47.702;9.410;2024-02-15T12:25:52;2.73;;;2.53;;
5869;SDS011;2961;47.702;9.410;2024-02-15T12:28:19;2.43;;;2.30;;
5869;SDS011;2961;47.702;9.410;2024-02-15T12:30:48;17.17;;;3.60;;
5869;SDS011;2961;47.702;9.410;2024-02-15T12:33:21;6.00;;;2.93;;
5869;SDS011;2961;47.702;9.410;2024-02-15T12:35:48;6.80;;;2.70;;
5869;SDS011;2961;47.702;9.410;2024-02-15T12:38:16;4.40;;;2.60;;
5869;SDS011;2961;47.702;9.410;2024-02-15T12:40:43;5.73;;;2.77;;
5869;SDS011;2961;47.702;9.410;2024-02-15T12:43:10;2.63;;;2.43;;
5869;SDS011;2961;47.702;9.410;2024-02-15T12:45:38;2.07;;;1.97;;
5869;SDS011;2961;47.702;9.410;2024-02-15T12:48:07;3.73;;;2.30;;
5869;SDS011;2961;47.702;9.410;2024-02-15T12:50:35;3.90;;;2.00;;
5869;SDS011;2961;47.702;9.410;2024-02-15T12:53:03;2.23;;;1.63;;
5869;SDS011;2961;47.702;9.410;2024-02-15T12:55:31;3.83;;;2.20;;
5869;SDS011;2961;47.702;9.410;2024-02-15T12:58:00;2.67;;;2.33;;
5869;SDS011;2961;47.702;9.410;2024-02-15T13:00:29;4.00;;;3.00;;
5869;SDS011;2961;47.702;9.410;2024-02-15T13:02:58;4.97;;;2.77;;
5869;SDS011;2961;47.702;9.410;2024-02-15T13:05:30;3.73;;;3.40;;
5869;SDS011;2961;47.702;9.410;2024-02-15T13:07:57;3.10;;;2.40;;
5869;SDS011;2961;47.702;9.410;2024-02-15T13:10:24;2.83;;;2.40;;
5869;SDS011;2961;47.702;9.410;2024-02-15T13:12:51;3.00;;;2.77;;
5869;SDS011;2961;47.702;9.410;2024-02-15T13:15:20;7.90;;;2.70;;
5869;SDS011;2961;47.702;9.410;2024-02-15T13:17:52;2.47;;;2.37;;
5869;SDS011;2961;47.702;9.410;2024-02-15T13:20:20;4.93;;;2.30;;
5869;SDS011;2961;47.702;9.410;2024-02-15T13:22:58;3.40;;;2.27;;
5869;SDS011;2961;47.702;9.410;2024-02-15T13:25:33;4.07;;;2.00;;
5869;SDS011;2961;47.702;9.410;2024-02-15T13:28:01;1.70;;;1.60;;
5869;SDS011;2961;47.702;9.410;2024-02-15T13:30:29;3.70;;;1.90;;
5869;SDS011;2961;47.702;9.410;2024-02-15T13:32:56;3.10;;;2.90;;
5869;SDS011;2961;47.702;9.410;2024-02-15T13:35:23;3.93;;;2.07;;
5869;SDS011;2961;47.702;9.410;2024-02-15T13:37:51;2.27;;;2.07;;
5869;SDS011;2961;47.702;9.410;2024-02-15T13:40:20;4.20;;;1.97;;
5869;SDS011;2961;47.702;9.410;2024-02-15T13:42:48;2.80;;;2.60;;
5869;SDS011;2961;47.702;9.410;2024-02-15T13:45:18;2.07;;;1.97;;
5869;SDS011;2961;47.702;9.410;2024-02-15T13:47:45;3.33;;;2.30;;
5869;SDS011;2961;47.702;9.410;2024-02-15T13:50:13;1.70;;;1.60;;
5869;SDS011;2961;47.702;9.410;2024-02-15T13:52:40;2.13;;;1.93;;
5869;SDS011;2961;47.702;9.410;2024-02-15T13:55:09;2.50;;;2.13;;
5869;SDS011;2961;47.702;9.410;2024-02-15T13:57:39;2.77;;;1.67;;
5869;SDS011;2961;47.702;9.410;2024-02-15T14:00:07;2.83;;;2.60;;
5869;SDS011;2961;47.702;9.410;2024-02-15T14:02:39;2.67;;;1.60;;
5869;SDS011;2961;47.702;9.410;2024-02-15T14:05:08;2.93;;;2.40;;
5869;SDS011;2961;47.702;9.410;2024-02-15T14:07:36;2.60;;;1.80;;
5869;SDS011;2961;47.702;9.410;2024-02-15T14:10:04;2.00;;;1.80;;
5869;SDS011;2961;47.702;9.410;2024-02-15T14:12:32;2.30;;;2.10;;
5869;SDS011;2961;47.702;9.410;2024-02-15T14:15:00;1.87;;;1.73;;
5869;SDS011;2961;47.702;9.410;2024-02-15T14:17:28;1.73;;;1.63;;
5869;SDS011;2961;47.702;9.410;2024-02-15T14:19:54;4.40;;;2.50;;
5869;SDS011;2961;47.702;9.410;2024-02-15T14:22:22;4.50;;;2.33;;
5869;SDS011;2961;47.702;9.410;2024-02-15T14:24:53;2.13;;;2.03;;
5869;SDS011;2961;47.702;9.410;2024-02-15T14:27:20;3.60;;;1.87;;
5869;SDS011;2961;47.702;9.410;2024-02-15T14:29:47;1.90;;;1.80;;
5869;SDS011;2961;47.702;9.410;2024-02-15T14:32:29;10.80;;;2.17;;
5869;SDS011;2961;47.702;9.410;2024-02-15T14:35:13;5.13;;;2.17;;
5869;SDS011;2961;47.702;9.410;2024-02-15T14:37:41;60.13;;;5.37;;
5869;SDS011;2961;47.702;9.410;2024-02-15T14:40:09;6.27;;;2.60;;
5869;SDS011;2961;47.702;9.410;2024-02-15T14:42:39;2.50;;;2.30;;
5869;SDS011;2961;47.702;9.410;2024-02-15T14:45:07;5.03;;;2.80;;
5869;SDS011;2961;47.702;9.410;2024-02-15T14:47:36;3.70;;;2.40;;
5869;SDS011;2961;47.702;9.410;2024-02-15T14:50:03;2.50;;;2.40;;
5869;SDS011;2961;47.702;9.410;2024-02-15T14:52:45;2.92;;;2.80;;
5869;SDS011;2961;47.702;9.410;2024-02-15T14:55:13;3.80;;;2.57;;
5869;SDS011;2961;47.702;9.410;2024-02-15T14:57:39;3.73;;;2.50;;
5869;SDS011;2961;47.702;9.410;2024-02-15T15:00:07;4.27;;;2.87;;
5869;SDS011;2961;47.702;9.410;2024-02-15T15:02:38;3.93;;;2.40;;
5869;SDS011;2961;47.702;9.410;2024-02-15T15:05:06;2.83;;;2.63;;
5869;SDS011;2961;47.702;9.410;2024-02-15T15:07:53;11.33;;;3.07;;
5869;SDS011;2961;47.702;9.410;2024-02-15T15:10:38;2.90;;;2.70;;
5869;SDS011;2961;47.702;9.410;2024-02-15T15:13:22;3.17;;;2.87;;
5869;SDS011;2961;47.702;9.410;2024-02-15T15:15:49;3.83;;;3.17;;
5869;SDS011;2961;47.702;9.410;2024-02-15T15:18:17;4.73;;;2.83;;
5869;SDS011;2961;47.702;9.410;2024-02-15T15:20:43;6.17;;;3.10;;
5869;SDS011;2961;47.702;9.410;2024-02-15T15:23:10;4.43;;;3.90;;
5869;SDS011;2961;47.702;9.410;2024-02-15T15:25:38;3.57;;;3.27;;
5869;SDS011;2961;47.702;9.410;2024-02-15T15:28:05;3.07;;;2.87;;